Time;durP1;ratioP1;P1;durP2;ratioP2;P2;SDS_P1;SDS_P2;PMS_P1;PMS_P2;Temp;Humidity;BMP_temperature;BMP_pressure;BME280_temperature;BME280_humidity;BME280_pressure;Samples;Min_cycle;Max_cycle;Signal;HPM_P1;HPM_P2
2022/12/20 00:01:13;;;;;;;9.63;6.80;;;17.50;51.70;;;;;;4964586;29;20035;-61
2022/12/20 00:03:39;;;;;;;9.68;6.40;;;17.40;51.60;;;;;;4964439;29;20031;-61
2022/12/20 00:06:05;;;;;;;10.77;6.88;;;17.30;51.70;;;;;;4947193;29;20289;-61
2022/12/20 00:08:31;;;;;;;8.90;5.97;;;17.20;51.90;;;;;;4964335;29;20117;-61
2022/12/20 00:11:00;;;;;;;10.27;6.68;;;17.10;52.00;;;;;;4964331;29;20318;-60
2022/12/20 00:13:26;;;;;;;10.63;7.18;;;17.10;52.10;;;;;;4947169;29;20038;-61
2022/12/20 00:16:19;;;;;;;8.75;6.15;;;17.10;52.40;;;;;;4964278;29;20346;-62
2022/12/20 00:18:46;;;;;;;10.52;7.32;;;17.00;52.60;;;;;;4963277;29;20274;-61
2022/12/20 00:21:14;;;;;;;8.77;6.07;;;17.00;52.60;;;;;;4964069;29;20078;-60
2022/12/20 00:23:41;;;;;;;8.73;5.90;;;16.90;52.40;;;;;;4964145;29;20115;-61
2022/12/20 00:26:12;;;;;;;8.82;6.60;;;16.90;52.40;;;;;;4964103;29;20035;-60
2022/12/20 00:28:39;;;;;;;10.52;7.00;;;16.80;52.40;;;;;;4964103;29;20082;-61
2022/12/20 00:31:07;;;;;;;9.15;6.28;;;16.60;52.70;;;;;;4963987;29;20039;-61
2022/12/20 00:33:34;;;;;;;9.32;5.75;;;16.60;53.00;;;;;;4964005;29;20027;-61
2022/12/20 00:36:00;;;;;;;10.68;7.13;;;16.50;53.10;;;;;;4963945;29;20026;-61
2022/12/20 00:38:26;;;;;;;11.13;7.30;;;16.60;53.10;;;;;;4963904;29;20188;-61
2022/12/20 00:41:26;;;;;;;10.50;6.57;;;16.60;53.30;;;;;;4963801;29;20094;-61
2022/12/20 00:43:53;;;;;;;9.15;6.25;;;16.70;53.20;;;;;;4952227;29;20521;-61
2022/12/20 00:46:20;;;;;;;10.25;6.97;;;16.70;53.00;;;;;;4962491;29;20027;-60
2022/12/20 00:48:46;;;;;;;9.80;6.70;;;16.80;52.80;;;;;;4963529;28;20027;-61
2022/12/20 00:51:15;;;;;;;10.38;6.75;;;17.00;52.50;;;;;;4963318;29;20046;-61
2022/12/20 00:53:41;;;;;;;9.52;6.63;;;17.10;52.10;;;;;;4963574;29;20031;-61
2022/12/20 00:56:07;;;;;;;9.43;6.45;;;17.20;52.10;;;;;;4963531;29;20051;-61
2022/12/20 00:58:35;;;;;;;11.15;6.88;;;17.20;52.10;;;;;;4963468;29;20027;-60
2022/12/20 01:01:02;;;;;;;10.90;6.97;;;17.20;52.10;;;;;;4962169;29;20377;-60
2022/12/20 01:03:28;;;;;;;10.23;6.68;;;17.30;51.90;;;;;;4963408;29;20234;-61
2022/12/20 01:05:56;;;;;;;9.50;6.28;;;17.30;51.90;;;;;;4963431;29;20027;-61
2022/12/20 01:08:23;;;;;;;9.63;7.05;;;17.40;51.70;;;;;;4963224;29;20055;-61
2022/12/20 01:11:10;;;;;;;8.35;6.13;;;17.40;51.50;;;;;;4963177;29;20031;-61
2022/12/20 01:13:38;;;;;;;9.85;6.72;;;17.40;51.50;;;;;;4963320;29;20023;-62
2022/12/20 01:16:14;;;;;;;8.90;6.97;;;17.30;51.60;;;;;;4963231;29;20019;-61
2022/12/20 01:18:40;;;;;;;10.48;6.60;;;17.30;51.70;;;;;;4963152;29;20046;-61
2022/12/20 01:21:10;;;;;;;10.68;6.25;;;17.20;52.10;;;;;;4963160;29;20035;-61
2022/12/20 01:23:35;;;;;;;9.57;6.00;;;17.10;52.30;;;;;;4963048;29;20048;-61
2022/12/20 01:26:08;;;;;;;9.30;6.30;;;17.00;52.30;;;;;;4962988;29;20071;-61
2022/12/20 01:28:34;;;;;;;9.45;6.57;;;17.00;52.50;;;;;;4963061;29;20228;-61
2022/12/20 01:31:00;;;;;;;9.30;6.38;;;17.00;52.60;;;;;;4962872;29;20030;-60
2022/12/20 01:33:26;;;;;;;9.88;6.65;;;16.90;52.20;;;;;;4962889;29;20087;-61
2022/12/20 01:36:07;;;;;;;10.05;6.82;;;16.90;52.80;;;;;;4962911;29;20034;-61
2022/12/20 01:38:34;;;;;;;10.70;7.45;;;16.90;52.80;;;;;;4962923;29;20527;-61
2022/12/20 01:41:00;;;;;;;10.90;7.10;;;16.80;52.70;;;;;;4961581;29;20219;-61
2022/12/20 01:43:44;;;;;;;10.88;7.60;;;16.70;52.70;;;;;;4962861;29;20046;-61
2022/12/20 01:46:10;;;;;;;9.18;6.15;;;16.60;52.90;;;;;;4962778;29;20243;-61
2022/12/20 01:48:36;;;;;;;10.13;6.47;;;16.50;52.90;;;;;;4962669;29;20386;-60
2022/12/20 01:51:03;;;;;;;12.07;7.40;;;16.50;53.10;;;;;;4962664;29;20219;-60
2022/12/20 01:53:30;;;;;;;9.10;6.13;;;16.50;52.90;;;;;;4962769;29;20031;-60
2022/12/20 01:56:02;;;;;;;10.45;7.07;;;16.60;52.80;;;;;;4962834;29;20027;-60
2022/12/20 01:58:28;;;;;;;8.38;6.30;;;16.60;52.90;;;;;;4962770;29;20011;-60
2022/12/20 02:00:54;;;;;;;10.88;6.78;;;16.70;52.90;;;;;;4962697;28;20035;-61
2022/12/20 02:03:19;;;;;;;10.60;7.03;;;16.80;52.60;;;;;;4966572;29;20033;-61
2022/12/20 02:05:45;;;;;;;11.95;7.43;;;16.80;52.40;;;;;;4966601;29;20046;-61
2022/12/20 02:08:14;;;;;;;11.32;6.45;;;16.90;52.40;;;;;;4966454;29;20062;-64
2022/12/20 02:11:10;;;;;;;9.57;6.15;;;17.00;52.30;;;;;;4966582;29;20027;-61
2022/12/20 02:14:10;;;;;;;11.60;6.53;;;17.00;52.40;;;;;;4966463;29;20042;-60
2022/12/20 02:16:47;;;;;;;9.68;6.57;;;17.20;52.00;;;;;;4966392;29;20015;-62
2022/12/20 02:19:50;;;;;;;9.05;6.32;;;17.20;51.90;;;;;;4966466;29;20070;-60
2022/12/20 02:22:43;;;;;;;10.50;6.40;;;17.30;51.80;;;;;;4966383;29;20023;-61
2022/12/20 02:25:12;;;;;;;9.48;6.82;;;17.30;51.70;;;;;;4966665;29;20059;-61
2022/12/20 02:28:21;;;;;;;11.02;6.95;;;17.40;51.60;;;;;;4966313;29;20062;-61
2022/12/20 02:30:51;;;;;;;10.55;6.20;;;17.50;51.50;;;;;;4945241;29;20043;-61
2022/12/20 02:33:18;;;;;;;8.77;6.22;;;17.40;51.40;;;;;;4966164;29;20016;-60
2022/12/20 02:35:43;;;;;;;10.93;6.82;;;17.30;52.00;;;;;;4966018;29;20019;-60
2022/12/20 02:38:35;;;;;;;9.18;6.38;;;17.30;51.70;;;;;;4966029;29;20038;-61
2022/12/20 02:41:08;;;;;;;10.07;6.85;;;17.20;51.80;;;;;;4966062;29;20306;-61
2022/12/20 02:46:23;;;;;;;9.05;6.30;;;17.00;52.30;;;;;;4965993;29;20027;-61
2022/12/20 02:48:52;;;;;;;10.20;6.50;;;17.00;52.50;;;;;;4965882;29;20114;-61
2022/12/20 02:51:20;;;;;;;;;;;16.90;52.30;;;;;;4966211;29;20242;-61
2022/12/20 02:53:46;;;;;;;9.57;6.40;;;16.90;52.30;;;;;;4965762;29;20190;-61
2022/12/20 02:56:49;;;;;;;9.57;5.85;;;16.80;52.80;;;;;;4965783;29;20076;-60
2022/12/20 02:59:23;;;;;;;10.32;6.70;;;16.80;52.50;;;;;;4965676;29;20027;-61
2022/12/20 03:01:53;;;;;;;9.43;6.30;;;16.60;52.40;;;;;;4965640;29;20042;-61
2022/12/20 03:04:26;;;;;;;8.60;5.65;;;16.60;52.70;;;;;;4965607;29;20263;-60
2022/12/20 03:07:15;;;;;;;10.90;6.63;;;16.50;52.80;;;;;;4965421;29;20063;-63
2022/12/20 03:09:43;;;;;;;10.73;6.93;;;16.50;52.90;;;;;;4965376;29;20067;-62
2022/12/20 03:12:11;;;;;;;11.73;7.15;;;16.60;52.70;;;;;;4964186;28;20035;-63
2022/12/20 03:14:38;;;;;;;10.68;6.75;;;16.60;52.60;;;;;;4965107;29;20089;-62
2022/12/20 03:17:05;;;;;;;9.27;6.68;;;16.60;52.90;;;;;;4965347;29;20086;-62
2022/12/20 03:19:31;;;;;;;9.02;6.13;;;16.80;52.80;;;;;;4965298;29;20031;-61
2022/12/20 03:21:57;;;;;;;8.90;6.22;;;16.90;52.30;;;;;;4965314;29;20073;-62
2022/12/20 03:24:24;;;;;;;9.65;6.53;;;16.90;52.20;;;;;;4965127;29;20085;-62
2022/12/20 03:26:50;;;;;;;8.73;6.38;;;17.00;52.00;;;;;;4965187;29;20027;-62
2022/12/20 03:29:16;;;;;;;9.85;6.60;;;16.90;52.40;;;;;;4965169;29;20350;-60
2022/12/20 03:31:42;;;;;;;8.77;6.28;;;17.00;52.30;;;;;;4965056;29;20035;-63
2022/12/20 03:34:07;;;;;;;8.68;6.45;;;17.10;52.20;;;;;;4965027;29;20106;-63
2022/12/20 03:36:33;;;;;;;8.90;6.03;;;17.20;52.00;;;;;;4964947;29;20058;-62
2022/12/20 03:38:59;;;;;;;9.63;6.68;;;17.20;51.60;;;;;;4964925;29;20034;-62
2022/12/20 03:41:25;;;;;;;12.35;6.85;;;17.30;51.60;;;;;;4964862;29;20062;-62
2022/12/20 03:43:51;;;;;;;9.55;6.38;;;17.30;51.50;;;;;;4964875;29;20031;-63
2022/12/20 03:46:18;;;;;;;9.82;6.40;;;17.40;51.40;;;;;;4964869;29;20031;-62
2022/12/20 03:48:44;;;;;;;8.73;6.03;;;17.40;51.30;;;;;;4964817;29;20062;-63
2022/12/20 03:51:10;;;;;;;8.85;5.70;;;17.40;51.50;;;;;;4963348;29;20394;-62
2022/12/20 03:53:36;;;;;;;8.50;6.15;;;17.30;51.50;;;;;;4964741;29;20135;-63
2022/12/20 03:56:02;;;;;;;10.35;7.00;;;17.30;51.60;;;;;;4964612;29;20027;-61
2022/12/20 03:58:30;;;;;;;8.35;5.50;;;17.20;51.90;;;;;;4964600;29;20431;-63
2022/12/20 04:00:57;;;;;;;9.05;6.13;;;17.10;52.00;;;;;;4964665;29;20577;-60
2022/12/20 04:03:23;;;;;;;9.90;6.15;;;17.00;52.20;;;;;;4964700;29;20027;-61
2022/12/20 04:05:49;;;;;;;10.38;6.65;;;17.00;52.30;;;;;;4964549;29;20046;-61
2022/12/20 04:08:21;;;;;;;8.98;5.80;;;16.90;52.40;;;;;;4964342;29;20058;-61
2022/12/20 04:13:31;;;;;;;9.30;6.85;;;16.90;52.60;;;;;;4964463;29;20030;-62
2022/12/20 04:15:57;;;;;;;8.65;6.40;;;16.80;52.40;;;;;;4963104;29;20035;-62
2022/12/20 04:18:22;;;;;;;10.00;6.43;;;16.70;52.20;;;;;;4964326;29;20250;-62
2022/12/20 04:20:52;;;;;;;8.73;6.25;;;16.60;52.60;;;;;;4964260;29;20043;-62
2022/12/20 04:23:18;;;;;;;8.93;5.63;;;16.60;52.70;;;;;;4979021;28;20430;-62
2022/12/20 04:25:44;;;;;;;10.05;7.07;;;16.50;52.90;;;;;;4963591;28;20019;-62
2022/12/20 04:28:10;;;;;;;9.48;6.60;;;16.50;53.00;;;;;;4962839;29;20035;-63
2022/12/20 04:30:35;;;;;;;11.00;6.68;;;16.60;52.80;;;;;;4964057;29;20062;-60
2022/12/20 04:33:04;;;;;;;9.88;6.05;;;16.60;52.90;;;;;;4963915;29;20022;-62
2022/12/20 04:35:29;;;;;;;8.52;6.45;;;16.60;52.60;;;;;;4963952;29;20093;-62
2022/12/20 04:37:55;;;;;;;12.38;6.43;;;16.70;52.80;;;;;;4963958;29;20292;-61
2022/12/20 04:40:21;;;;;;;7.95;5.88;;;16.90;52.30;;;;;;4963790;29;20034;-62
2022/12/20 04:42:47;;;;;;;9.38;6.70;;;16.90;52.10;;;;;;4962667;29;20038;-62
2022/12/20 04:45:13;;;;;;;9.50;6.10;;;17.00;52.20;;;;;;4963809;29;20130;-62
2022/12/20 04:47:38;;;;;;;7.78;6.00;;;16.90;52.10;;;;;;4963768;29;20027;-62
2022/12/20 04:50:06;;;;;;;9.00;6.63;;;17.00;52.10;;;;;;4963716;29;20383;-62
2022/12/20 04:55:16;;;;;;;8.38;5.82;;;17.20;51.80;;;;;;4963705;29;20062;-63
2022/12/20 04:57:42;;;;;;;9.68;6.43;;;17.30;51.80;;;;;;4962445;29;20031;-62
2022/12/20 05:00:08;;;;;;;9.82;6.63;;;17.30;51.60;;;;;;4963589;29;20243;-62
2022/12/20 05:02:34;;;;;;;8.88;5.85;;;17.30;51.50;;;;;;4963509;29;20238;-62
2022/12/20 05:05:00;;;;;;;8.50;6.13;;;17.40;51.50;;;;;;4963463;29;20019;-63
2022/12/20 05:07:26;;;;;;;8.95;5.88;;;17.30;51.50;;;;;;4963251;29;20338;-63
2022/12/20 05:09:52;;;;;;;10.20;6.68;;;17.30;51.50;;;;;;4963348;29;20102;-63
2022/12/20 05:12:18;;;;;;;10.23;6.20;;;17.30;51.40;;;;;;4963259;29;20046;-63
2022/12/20 05:14:44;;;;;;;10.52;6.18;;;17.30;51.50;;;;;;4963176;29;20151;-62
2022/12/20 05:17:10;;;;;;;9.27;5.88;;;17.20;51.40;;;;;;4963214;29;20082;-62
2022/12/20 05:19:36;;;;;;;9.27;6.25;;;17.20;51.90;;;;;;4963176;29;20033;-63
2022/12/20 05:27:30;;;;;;;9.43;6.70;;;17.00;52.30;;;;;;4963090;29;20147;-62
2022/12/20 05:29:56;;;;;;;9.02;6.40;;;16.90;52.40;;;;;;4963049;29;20027;-63
2022/12/20 05:32:21;;;;;;;9.50;6.65;;;16.90;52.60;;;;;;4962962;29;20238;-62
2022/12/20 05:34:47;;;;;;;8.98;6.30;;;16.90;52.60;;;;;;4962979;29;20137;-62
2022/12/20 05:37:13;;;;;;;9.32;6.10;;;16.80;52.20;;;;;;4962017;28;20231;-62
2022/12/20 05:39:39;;;;;;;11.38;6.55;;;16.70;52.50;;;;;;4962962;29;20214;-63
2022/12/20 05:42:04;;;;;;;9.50;6.70;;;16.60;52.70;;;;;;4962902;29;20259;-62
2022/12/20 05:44:30;;;;;;;8.25;5.78;;;16.50;52.80;;;;;;4962875;29;20030;-60
2022/12/20 05:46:56;;;;;;;8.57;6.18;;;16.50;53.00;;;;;;4962877;29;20038;-62
2022/12/20 05:49:22;;;;;;;9.32;6.30;;;16.50;52.80;;;;;;4962860;29;20106;-62
2022/12/20 05:51:48;;;;;;;8.90;6.63;;;16.60;52.70;;;;;;4962662;29;20047;-63
2022/12/20 05:54:14;;;;;;;9.25;6.80;;;16.60;52.50;;;;;;4962758;29;20027;-62
2022/12/20 05:56:39;;;;;;;9.82;5.82;;;16.70;52.80;;;;;;4962720;29;20031;-62
2022/12/20 05:59:05;;;;;;;8.80;5.90;;;16.90;52.50;;;;;;4962742;29;20027;-60
2022/12/20 06:01:34;;;;;;;8.73;6.28;;;16.90;52.30;;;;;;4962550;29;20251;-62
2022/12/20 06:03:59;;;;;;;7.38;5.60;;;17.00;52.10;;;;;;4962868;29;20089;-62
2022/12/20 06:06:25;;;;;;;9.00;5.93;;;17.10;51.90;;;;;;4962569;29;20338;-62
2022/12/20 06:08:51;;;;;;;9.43;5.90;;;17.10;51.90;;;;;;4962513;29;20023;-63
2022/12/20 06:11:17;;;;;;;9.45;6.47;;;17.10;51.80;;;;;;4962557;29;20094;-62
2022/12/20 06:13:45;;;;;;;8.63;5.47;;;17.20;52.00;;;;;;4962627;29;20023;-62
2022/12/20 06:16:11;;;;;;;7.97;5.88;;;17.20;51.80;;;;;;4962657;29;20037;-62
2022/12/20 06:18:36;;;;;;;8.20;5.82;;;17.30;51.70;;;;;;4962551;29;20051;-62
2022/12/20 06:21:02;;;;;;;8.10;5.80;;;17.30;51.50;;;;;;4962523;29;20058;-62
2022/12/20 06:23:28;;;;;;;8.15;6.03;;;17.40;51.40;;;;;;4962535;29;20315;-63
2022/12/20 06:25:54;;;;;;;8.43;6.38;;;17.40;51.30;;;;;;4962471;29;20037;-62
2022/12/20 06:28:21;;;;;;;9.75;5.93;;;17.30;51.40;;;;;;4962529;29;20031;-62
2022/12/20 06:30:53;;;;;;;8.07;5.90;;;17.30;51.40;;;;;;4962379;29;20019;-62
2022/12/20 06:33:20;;;;;;;9.82;6.65;;;17.30;51.60;;;;;;4962428;29;20027;-62
2022/12/20 06:35:46;;;;;;;7.78;5.90;;;17.10;51.60;;;;;;4962596;29;20030;-62
2022/12/20 06:38:11;;;;;;;7.85;5.95;;;17.10;51.90;;;;;;4962411;29;20031;-60
2022/12/20 06:40:37;;;;;;;8.90;6.18;;;17.00;52.00;;;;;;4962360;29;20031;-62
2022/12/20 06:43:03;;;;;;;9.32;5.80;;;17.00;52.00;;;;;;4962274;29;20036;-63
2022/12/20 06:45:29;;;;;;;9.85;6.40;;;16.90;52.20;;;;;;4962190;29;20050;-62
2022/12/20 06:47:57;;;;;;;9.75;6.55;;;16.90;52.20;;;;;;4962522;28;20259;-62
2022/12/20 06:50:26;;;;;;;10.32;6.53;;;16.90;52.30;;;;;;4965904;29;20614;-63
2022/12/20 06:52:52;;;;;;;9.43;6.43;;;16.80;52.00;;;;;;4965650;29;20023;-61
2022/12/20 06:55:20;;;;;;;9.43;6.32;;;16.70;52.20;;;;;;4964661;29;20035;-61
2022/12/20 06:57:46;;;;;;;8.93;6.18;;;16.60;52.40;;;;;;4965746;29;20031;-61
2022/12/20 07:00:13;;;;;;;8.88;6.13;;;16.50;52.80;;;;;;4965650;29;20377;-61
2022/12/20 07:02:39;;;;;;;8.45;5.93;;;16.50;52.60;;;;;;4965553;29;20227;-61
2022/12/20 07:05:05;;;;;;;9.30;6.10;;;16.50;52.70;;;;;;4965684;29;20378;-61
2022/12/20 07:07:31;;;;;;;9.82;6.35;;;16.50;52.70;;;;;;4965496;29;20062;-63
2022/12/20 07:09:58;;;;;;;10.05;6.97;;;16.60;52.60;;;;;;4965478;29;20259;-62
2022/12/20 07:12:23;;;;;;;7.45;5.47;;;16.60;52.40;;;;;;4965481;29;20038;-61
2022/12/20 07:14:50;;;;;;;9.57;6.78;;;16.70;52.70;;;;;;4965425;29;20031;-61
2022/12/20 07:17:16;;;;;;;9.00;6.10;;;16.80;52.40;;;;;;4965523;29;20033;-62
2022/12/20 07:19:42;;;;;;;8.73;5.70;;;16.90;52.10;;;;;;4965288;29;20031;-61
2022/12/20 07:22:08;;;;;;;7.85;5.85;;;17.00;51.90;;;;;;4965325;29;20215;-62
2022/12/20 07:24:33;;;;;;;7.78;5.70;;;17.00;51.60;;;;;;4965232;29;20039;-61
2022/12/20 07:27:00;;;;;;;9.55;6.40;;;17.10;51.70;;;;;;4965279;29;20027;-61
2022/12/20 07:29:26;;;;;;;9.10;6.57;;;17.20;52.30;;;;;;4965118;29;20339;-61
2022/12/20 07:31:52;;;;;;;8.18;5.88;;;17.20;51.50;;;;;;4965128;29;20349;-61
2022/12/20 07:34:18;;;;;;;7.47;5.18;;;17.30;51.40;;;;;;4965098;29;20031;-62
2022/12/20 07:36:44;;;;;;;8.60;5.53;;;17.30;51.30;;;;;;4965165;29;20019;-61
2022/12/20 07:39:10;;;;;;;8.13;6.03;;;17.30;51.30;;;;;;4964999;29;20082;-61
2022/12/20 07:41:36;;;;;;;9.80;6.82;;;17.20;51.40;;;;;;4965028;29;20090;-61
2022/12/20 07:44:03;;;;;;;9.50;5.75;;;17.20;51.50;;;;;;4964829;29;20043;-61
2022/12/20 07:46:29;;;;;;;8.20;5.78;;;17.20;51.70;;;;;;4964828;29;20026;-61
2022/12/20 07:48:55;;;;;;;10.00;6.20;;;17.10;51.70;;;;;;4965041;29;20035;-61
2022/12/20 07:51:25;;;;;;;9.00;6.20;;;17.00;51.90;;;;;;4964783;29;20047;-63
2022/12/20 07:54:27;;;;;;;9.73;6.15;;;17.00;52.00;;;;;;4964784;29;20027;-61
2022/12/20 07:56:58;;;;;;;8.07;5.60;;;16.90;52.00;;;;;;4963638;29;20110;-61
2022/12/20 07:59:28;;;;;;;7.72;5.65;;;16.90;51.70;;;;;;4963720;28;20094;-61
2022/12/20 08:01:55;;;;;;;9.27;5.70;;;16.80;51.70;;;;;;4964680;29;20023;-61
2022/12/20 08:04:25;;;;;;;7.53;5.65;;;16.90;52.10;;;;;;4964598;29;20031;-62
2022/12/20 08:06:54;;;;;;;9.35;6.10;;;16.90;51.80;;;;;;4964321;29;20407;-61
2022/12/20 08:09:21;;;;;;;8.35;6.15;;;16.70;52.10;;;;;;4964562;29;20389;-62
2022/12/20 08:11:48;;;;;;;10.07;5.82;;;16.70;52.30;;;;;;4964358;29;20027;-61
2022/12/20 08:14:17;;;;;;;9.43;6.00;;;16.70;52.20;;;;;;4964423;29;20019;-61
2022/12/20 08:16:43;;;;;;;8.25;5.93;;;16.70;52.10;;;;;;4964317;29;20019;-61
2022/12/20 08:19:09;;;;;;;8.00;5.50;;;16.60;52.40;;;;;;4964279;29;20042;-61
2022/12/20 08:21:36;;;;;;;10.95;5.90;;;16.60;52.30;;;;;;4964042;29;20034;-61
2022/12/20 08:24:02;;;;;;;9.48;5.95;;;16.60;52.40;;;;;;4964304;29;20039;-61
2022/12/20 08:26:28;;;;;;;10.27;5.95;;;16.60;52.50;;;;;;4964194;29;20055;-61
2022/12/20 08:28:54;;;;;;;9.43;5.80;;;16.60;52.60;;;;;;4964103;29;20035;-61
2022/12/20 08:31:20;;;;;;;8.07;6.40;;;16.60;52.70;;;;;;4964049;29;20050;-61
2022/12/20 08:33:46;;;;;;;7.93;5.75;;;16.60;52.60;;;;;;4964105;29;20043;-62
2022/12/20 08:36:13;;;;;;;7.82;5.45;;;16.80;52.20;;;;;;4962845;29;20046;-61
2022/12/20 08:38:40;;;;;;;7.95;5.65;;;16.90;52.10;;;;;;4963995;29;20058;-62
2022/12/20 08:41:11;;;;;;;8.45;5.90;;;17.00;51.80;;;;;;4962541;29;20207;-61
2022/12/20 08:43:40;;;;;;;8.45;6.03;;;17.10;51.70;;;;;;4963888;29;20078;-61
2022/12/20 08:46:08;;;;;;;8.20;5.72;;;17.20;51.60;;;;;;4963827;29;20086;-62
2022/12/20 08:48:34;;;;;;;6.90;5.30;;;17.30;51.40;;;;;;4963628;29;20045;-62
2022/12/20 08:51:03;;;;;;;8.27;6.22;;;17.30;51.30;;;;;;4963638;29;20341;-60
2022/12/20 08:53:30;;;;;;;8.23;5.53;;;17.40;51.00;;;;;;4963502;29;20212;-62
2022/12/20 08:56:10;;;;;;;9.07;6.07;;;17.50;51.00;;;;;;4963605;29;20582;-59
2022/12/20 08:58:38;;;;;;;9.07;5.80;;;17.40;50.90;;;;;;4963606;29;20031;-60
2022/12/20 09:01:07;;;;;;;7.32;5.63;;;17.40;50.80;;;;;;4963558;29;20338;-60
2022/12/20 09:03:34;;;;;;;9.27;6.10;;;17.30;50.90;;;;;;4963528;29;20443;-60
2022/12/20 09:06:00;;;;;;;9.07;5.45;;;17.30;51.10;;;;;;4963229;29;20027;-60
2022/12/20 09:08:26;;;;;;;8.88;6.22;;;17.30;51.40;;;;;;4963264;29;20067;-60
2022/12/20 09:10:52;;;;;;;8.52;5.82;;;17.20;51.50;;;;;;4963115;28;20027;-61
2022/12/20 09:13:20;;;;;;;7.75;5.20;;;17.20;51.60;;;;;;4962987;29;20094;-60
2022/12/20 09:15:46;;;;;;;7.75;5.35;;;17.10;51.60;;;;;;4963264;29;20020;-59
2022/12/20 09:18:11;;;;;;;9.02;5.63;;;17.20;51.70;;;;;;4963272;29;20394;-61
2022/12/20 09:20:46;;;;;;;8.38;5.43;;;17.10;51.60;;;;;;4963213;29;20077;-62
2022/12/20 09:23:12;;;;;;;6.60;4.93;;;17.10;51.50;;;;;;4963160;29;20023;-60
2022/12/20 09:25:38;;;;;;;8.55;5.72;;;17.10;51.50;;;;;;4963133;29;20035;-61
2022/12/20 09:28:04;;;;;;;7.35;5.43;;;17.10;51.50;;;;;;4963126;29;20081;-62
2022/12/20 09:30:31;;;;;;;7.15;5.28;;;17.10;51.50;;;;;;4963039;29;20035;-60
2022/12/20 09:32:57;;;;;;;7.90;5.75;;;17.20;51.40;;;;;;4962879;29;20094;-61
2022/12/20 09:35:22;;;;;;;8.55;5.65;;;17.10;51.30;;;;;;4962928;29;20329;-59
2022/12/20 09:37:48;;;;;;;8.88;6.00;;;17.10;51.10;;;;;;4962814;29;20087;-60
2022/12/20 09:40:19;;;;;;;7.63;5.38;;;17.00;51.60;;;;;;4962960;29;20019;-60
2022/12/20 09:42:46;;;;;;;9.05;5.82;;;16.90;51.80;;;;;;4962946;29;20342;-62
2022/12/20 09:45:28;;;;;;;8.98;5.78;;;16.80;51.60;;;;;;4961591;29;20041;-60
2022/12/20 09:47:54;;;;;;;6.63;4.93;;;16.80;52.10;;;;;;4962885;29;20113;-60
2022/12/20 09:50:39;;;;;;;8.80;5.95;;;16.80;52.30;;;;;;4962835;29;20045;-60
2022/12/20 09:53:25;;;;;;;9.30;5.90;;;16.90;52.10;;;;;;4962811;29;20238;-61
2022/12/20 09:56:02;;;;;;;8.48;5.93;;;16.90;51.90;;;;;;4932615;29;20087;-60
2022/12/20 09:58:43;;;;;;;8.05;5.18;;;17.00;51.80;;;;;;4962796;29;20023;-61
2022/12/20 10:01:19;;;;;;;10.02;6.50;;;17.00;51.70;;;;;;4962755;29;20031;-60
2022/12/20 10:03:45;;;;;;;7.65;4.82;;;17.10;51.70;;;;;;4962741;29;20046;-60
2022/12/20 10:06:10;;;;;;;8.88;5.63;;;17.40;51.30;;;;;;4962743;29;20338;-60
2022/12/20 10:09:03;;;;;;;7.25;5.03;;;17.50;50.70;;;;;;4962548;29;20039;-60
2022/12/20 10:12:00;;;;;;;7.90;5.30;;;17.80;50.30;;;;;;4962593;29;20365;-60
2022/12/20 10:14:49;;;;;;;5.93;4.55;;;17.90;49.80;;;;;;4961403;29;20091;-60
2022/12/20 10:17:45;;;;;;;7.10;5.03;;;18.00;49.90;;;;;;4962681;29;20461;-60
2022/12/20 10:20:35;;;;;;;6.97;4.97;;;18.00;50.50;;;;;;4962548;29;20082;-60
2022/12/20 10:23:12;;;;;;;7.63;5.20;;;17.80;50.10;;;;;;4964266;28;20034;-60
2022/12/20 10:25:40;;;;;;;8.40;5.75;;;17.70;50.30;;;;;;4966414;29;20100;-60
2022/12/20 10:28:15;;;;;;;7.30;5.45;;;17.50;50.70;;;;;;4966310;29;20410;-60
2022/12/20 10:30:42;;;;;;;8.00;5.82;;;17.30;50.90;;;;;;4966319;29;20035;-61
2022/12/20 10:33:20;;;;;;;6.75;5.30;;;17.10;51.30;;;;;;4966159;29;20335;-60
2022/12/20 10:35:47;;;;;;;7.85;5.40;;;17.00;51.60;;;;;;4966242;29;20035;-60
2022/12/20 10:38:16;;;;;;;7.95;5.75;;;16.90;51.90;;;;;;4980890;28;20027;-61
2022/12/20 10:40:57;;;;;;;7.30;4.47;;;16.90;52.00;;;;;;4966106;29;20027;-61
2022/12/20 10:43:24;;;;;;;8.20;5.68;;;16.90;51.90;;;;;;4966094;29;20393;-60
2022/12/20 10:46:10;;;;;;;7.78;5.15;;;16.90;51.80;;;;;;4948682;29;20105;-61
2022/12/20 10:48:41;;;;;;;8.40;5.45;;;16.90;52.00;;;;;;4966099;29;20026;-61
2022/12/20 10:51:09;;;;;;;8.77;5.53;;;16.90;52.00;;;;;;4965821;29;20031;-60
2022/12/20 10:53:52;;;;;;;6.70;5.10;;;16.90;52.00;;;;;;4965812;29;20027;-60
2022/12/20 10:56:20;;;;;;;9.52;6.05;;;16.90;51.90;;;;;;4965813;29;20023;-60
2022/12/20 10:59:16;;;;;;;7.80;5.35;;;16.80;52.10;;;;;;4965824;29;20070;-62
2022/12/20 11:01:44;;;;;;;6.97;4.72;;;16.90;51.90;;;;;;4962712;29;20054;-60
2022/12/20 11:04:34;;;;;;;6.55;5.22;;;16.90;51.90;;;;;;4965550;29;20337;-60
2022/12/20 11:07:01;;;;;;;8.38;5.18;;;16.90;51.90;;;;;;4965357;29;20071;-60
2022/12/20 11:09:35;;;;;;;6.82;5.00;;;16.90;51.90;;;;;;4965624;29;20031;-60
2022/12/20 11:12:22;;;;;;;8.27;5.00;;;16.80;52.10;;;;;;4965437;29;20098;-60
2022/12/20 11:14:49;;;;;;;8.57;5.33;;;16.80;52.30;;;;;;4965091;29;20031;-60
2022/12/20 11:17:24;;;;;;;7.53;5.25;;;16.70;52.50;;;;;;4965361;29;20039;-62
2022/12/20 11:20:03;;;;;;;8.40;5.32;;;16.70;52.50;;;;;;4965192;29;20023;-60
2022/12/20 11:22:38;;;;;;;5.85;4.47;;;16.70;52.40;;;;;;4965380;29;20041;-60
2022/12/20 11:25:14;;;;;;;8.10;5.40;;;16.70;52.40;;;;;;4965220;29;20051;-61
2022/12/20 11:27:39;;;;;;;8.43;5.85;;;16.70;52.30;;;;;;4965337;29;20042;-61
2022/12/20 11:30:19;;;;;;;6.28;4.97;;;16.80;52.00;;;;;;4965374;29;20094;-60
2022/12/20 11:33:15;;;;;;;8.85;5.38;;;16.80;51.90;;;;;;4965087;29;20039;-60
2022/12/20 11:35:53;;;;;;;6.90;4.85;;;16.80;52.10;;;;;;4962793;29;20035;-61
2022/12/20 11:38:34;;;;;;;7.28;5.07;;;16.80;52.10;;;;;;4965069;29;20019;-60
2022/12/20 11:41:18;;;;;;;6.75;5.30;;;16.80;52.10;;;;;;4964925;29;20027;-60
2022/12/20 11:43:49;;;;;;;7.53;5.47;;;16.90;52.10;;;;;;4964952;29;20024;-61
2022/12/20 11:46:25;;;;;;;6.65;4.70;;;16.90;51.90;;;;;;4964800;29;20027;-60
2022/12/20 11:49:30;;;;;;;7.57;5.15;;;17.20;51.50;;;;;;4964903;29;20020;-60
2022/12/20 11:52:08;;;;;;;7.10;4.68;;;17.40;51.00;;;;;;4964630;29;20027;-60
2022/12/20 11:54:40;;;;;;;9.48;5.50;;;17.60;50.60;;;;;;4964791;29;20019;-60
2022/12/20 11:57:21;;;;;;;6.18;4.60;;;17.60;50.50;;;;;;4964700;29;20035;-60
2022/12/20 11:59:57;;;;;;;7.43;4.70;;;17.60;50.50;;;;;;4964698;29;20023;-60
2022/12/20 12:02:31;;;;;;;6.70;4.95;;;17.60;50.60;;;;;;4964710;29;20027;-60
2022/12/20 12:05:13;;;;;;;8.52;5.47;;;17.60;50.50;;;;;;4964501;29;20038;-60
2022/12/20 12:07:43;;;;;;;7.60;5.05;;;17.60;50.70;;;;;;4964377;29;20062;-60
2022/12/20 12:10:15;;;;;;;6.88;5.32;;;17.50;50.80;;;;;;4964540;29;20034;-59
2022/12/20 12:12:47;;;;;;;6.43;4.82;;;17.50;51.00;;;;;;4963129;29;20098;-60
2022/12/20 12:15:49;;;;;;;7.05;5.03;;;17.30;51.20;;;;;;4964417;29;20054;-60
2022/12/20 12:18:26;;;;;;;6.20;5.13;;;17.10;51.40;;;;;;4960667;29;20043;-61
2022/12/20 12:21:04;;;;;;;8.27;5.45;;;17.00;51.90;;;;;;4964257;29;20031;-60
2022/12/20 12:23:56;;;;;;;7.20;5.07;;;17.10;51.80;;;;;;4962878;29;20027;-60
2022/12/20 12:26:31;;;;;;;7.75;5.25;;;17.10;51.60;;;;;;4963967;29;20253;-60
2022/12/20 12:28:59;;;;;;;6.10;4.57;;;17.10;51.70;;;;;;4964068;29;20051;-60
2022/12/20 12:31:41;;;;;;;7.88;5.18;;;17.10;51.70;;;;;;4963936;29;20357;-60
2022/12/20 12:34:41;;;;;;;7.72;4.88;;;17.00;51.90;;;;;;4963942;29;20042;-60
2022/12/20 12:37:15;;;;;;;6.75;4.60;;;17.00;52.00;;;;;;4963980;29;20335;-60
2022/12/20 12:40:02;;;;;;;7.30;4.57;;;17.00;52.10;;;;;;4963980;29;20461;-61
2022/12/20 12:42:44;;;;;;;6.68;5.40;;;16.90;52.20;;;;;;4963902;29;20082;-61
2022/12/20 12:45:15;;;;;;;7.57;4.88;;;16.80;52.20;;;;;;4963434;28;20023;-62
2022/12/20 12:47:48;;;;;;;8.02;5.07;;;16.80;52.30;;;;;;4963631;29;20094;-60
2022/12/20 12:50:20;;;;;;;7.13;5.15;;;16.80;52.50;;;;;;4963597;29;20035;-60
2022/12/20 12:53:07;;;;;;;7.03;4.75;;;16.70;52.50;;;;;;4963643;29;20319;-60
2022/12/20 12:55:51;;;;;;;9.30;5.13;;;16.70;52.50;;;;;;4963741;29;20090;-61
2022/12/20 12:58:22;;;;;;;6.53;4.70;;;16.80;52.20;;;;;;4963558;29;20070;-61
2022/12/20 13:00:54;;;;;;;6.63;4.95;;;17.00;52.00;;;;;;4963640;29;20038;-60
2022/12/20 13:03:38;;;;;;;7.20;5.18;;;17.20;51.50;;;;;;4963588;29;20074;-61
2022/12/20 13:06:24;;;;;;;6.07;4.55;;;17.20;51.40;;;;;;4963358;29;20035;-60
2022/12/20 13:08:59;;;;;;;8.45;5.25;;;17.50;51.00;;;;;;4952325;29;20066;-61
2022/12/20 13:11:35;;;;;;;6.80;4.93;;;17.80;50.30;;;;;;4963285;29;20031;-62
2022/12/20 13:14:19;;;;;;;5.68;4.88;;;17.90;50.00;;;;;;4963262;29;20023;-61
2022/12/20 13:16:47;;;;;;;7.45;5.32;;;18.00;49.90;;;;;;4963340;29;20059;-60
2022/12/20 13:19:24;;;;;;;6.75;5.03;;;18.00;49.70;;;;;;4963173;29;20030;-60